Beltana — VNFN — position and weather

sailwx.info

Track history (hours):
 
Tides and Currents Weather Stations Pressure Air Temp Water Temp Dewpoint Dewpoint Depression Visibility Wind Speed Wind Dir Waves Ship Positions

Beltana

Last reported at 2017-Sep-21 06:08 UTC. Time now 2017-Sep-21 07:13 UTC.
Position S 27°22' E 153°10'.

Length 31 m; draft 5 m.

Type: Tug. MMSI: 503354000.

Date/timePositionNaut miles runAvg speedWind from/ knotsBaromVisibWave heightAir tempDewpointWater temp
2017-Sep-21 06:08S 27°22' E 153°10'2 0.3
2017-Sep-21 00:10S 27°24' E 153°09'1 3.2
2017-Sep-20 23:58S 27°23' E 153°09'1 1.0
2017-Sep-20 23:22S 27°23' E 153°10'0 0.0
2017-Sep-20 22:50S 27°23' E 153°10'0 0.6
2017-Sep-20 22:26S 27°23' E 153°10'1 3.2
2017-Sep-20 22:00S 27°21' E 153°11'2 2.9
2017-Sep-20 21:28S 27°23' E 153°10'1 1.2
2017-Sep-20 21:00S 27°22' E 153°10'1 1.3
2017-Sep-20 20:30S 27°23' E 153°10'1 1.0
2017-Sep-20 19:16S 27°24' E 153°09'0 0.0
2017-Sep-20 15:24S 27°24' E 153°09'1 2.7
2017-Sep-20 15:00S 27°23' E 153°10'2 1.8
2017-Sep-20 14:00S 27°22' E 153°11'0 0.9
2017-Sep-20 13:31S 27°22' E 153°11'0 0.0
2017-Sep-20 13:00S 27°22' E 153°11'0 0.0
2017-Sep-20 12:31S 27°22' E 153°11'0 0.0
2017-Sep-20 12:00S 27°22' E 153°11'0 0.0
2017-Sep-20 11:30S 27°22' E 153°11'0 0.0
2017-Sep-20 11:00S 27°22' E 153°11'1 1.4
2017-Sep-20 10:31S 27°22' E 153°10'2 3.5
2017-Sep-20 10:00S 27°24' E 153°09'0 0.0
2017-Sep-19 21:21S 27°24' E 153°09'2 7.1
2017-Sep-19 21:00S 27°22' E 153°11'0 0.5
2017-Sep-19 20:30S 27°22' E 153°11'1 2.9
2017-Sep-19 20:00S 27°23' E 153°10'0 0.0
2017-Sep-19 19:30S 27°23' E 153°10'0 0.2
2017-Sep-19 18:59S 27°23' E 153°10'1 1.8
2017-Sep-19 18:30S 27°22' E 153°10'0 0.2
2017-Sep-19 18:00S 27°22' E 153°10'2 4.0
2017-Sep-19 17:30S 27°24' E 153°09'0 0.4
2017-Sep-19 16:59S 27°24' E 153°09'0 0.0
2017-Sep-19 16:29S 27°24' E 153°09'0 0.0
2017-Sep-19 15:56S 27°24' E 153°09'0 0.0
2017-Sep-19 15:29S 27°24' E 153°09'0 0.0
2017-Sep-19 14:59S 27°24' E 153°09'0 0.0
2017-Sep-19 14:23S 27°24' E 153°09'0 0.0
2017-Sep-19 13:59S 27°24' E 153°09'0 0.0
2017-Sep-19 13:29S 27°24' E 153°09'0 0.0
2017-Sep-19 12:56S 27°24' E 153°09'0 0.0
2017-Sep-19 12:08S 27°24' E 153°09'0 0.0
2017-Sep-19 07:22S 27°24' E 153°09'1 2.1
2017-Sep-19 06:58S 27°25' E 153°09'3 6.9
2017-Sep-19 06:29S 27°27' E 153°06'0 0.4
2017-Sep-19 05:39S 27°27' E 153°05'3 7.6
2017-Sep-19 05:19S 27°26' E 153°08'2 0.9
2017-Sep-19 03:11S 27°24' E 153°09'1 5.7
2017-Sep-19 03:00S 27°23' E 153°10'0 0.9
2017-Sep-19 02:29S 27°23' E 153°10'0 0.7
2017-Sep-19 02:00S 27°22' E 153°10'1 1.0
2017-Sep-19 01:30S 27°23' E 153°10'1 0.3
2017-Sep-18 20:50S 27°24' E 153°09'1 4.0
2017-Sep-18 20:31S 27°23' E 153°10'0 0.0
2017-Sep-18 20:00S 27°23' E 153°10'0 0.0
2017-Sep-18 19:30S 27°23' E 153°10'0 0.0
2017-Sep-18 19:01S 27°23' E 153°10'0 0.2
2017-Sep-18 18:31S 27°23' E 153°10'1 2.6
2017-Sep-18 18:00S 27°24' E 153°09'0 0.3
2017-Sep-18 17:28S 27°24' E 153°09'0 0.0
2017-Sep-18 16:52S 27°24' E 153°09'0 0.0
2017-Sep-18 16:25S 27°24' E 153°09'0 0.0
2017-Sep-18 15:52S 27°24' E 153°09'0 0.0
2017-Sep-18 15:25S 27°24' E 153°09'0 0.0
2017-Sep-18 14:58S 27°24' E 153°09'0 0.0
2017-Sep-18 14:22S 27°24' E 153°09'0 0.0
2017-Sep-18 13:46S 27°24' E 153°09'0 0.0
2017-Sep-18 13:22S 27°24' E 153°09'0 0.0
2017-Sep-18 12:58S 27°24' E 153°09'0 0.0
2017-Sep-18 12:20S 27°24' E 153°09'2 5.6
2017-Sep-18 12:00S 27°25' E 153°08'0 0.2
2017-Sep-18 11:18S 27°26' E 153°08'2 6.5
2017-Sep-18 11:00S 27°24' E 153°09'0 0.0
2017-Sep-17 12:27S 27°24' E 153°09'1 2.4
2017-Sep-17 12:00S 27°23' E 153°10'0 0.0
2017-Sep-17 11:30S 27°23' E 153°10'0 0.1
2017-Sep-17 11:00S 27°23' E 153°10'1 2.4
2017-Sep-17 10:30S 27°22' E 153°10'2 4.2
2017-Sep-17 10:00S 27°24' E 153°09'0 0.1
2017-Sep-17 07:03S 27°24' E 153°09'0 1.5
2017-Sep-17 07:01S 27°24' E 153°09'4 6.6
2017-Sep-17 06:28S 27°27' E 153°06'1 0.6
2017-Sep-17 05:21S 27°27' E 153°06'5 7.8
2017-Sep-17 04:45S 27°23' E 153°09'0 0.0
2017-Sep-17 04:29S 27°23' E 153°09'1 2.0
2017-Sep-17 04:00S 27°23' E 153°10'1 1.9
2017-Sep-17 03:30S 27°22' E 153°10'0 1.0
2017-Sep-17 03:00S 27°22' E 153°10'1 2.2
2017-Sep-17 02:24S 27°23' E 153°09'0 0.2
2017-Sep-17 02:00S 27°23' E 153°09'0 0.2
2017-Sep-17 01:22S 27°23' E 153°10'1 2.0
2017-Sep-17 00:54S 27°22' E 153°10'0 0.1
2017-Sep-17 00:30S 27°22' E 153°10'1 1.1
2017-Sep-16 23:54S 27°22' E 153°10'1 2.1
2017-Sep-16 23:29S 27°23' E 153°10'2 0.6
2017-Sep-16 20:54S 27°24' E 153°09'0 0.8
2017-Sep-16 20:30S 27°24' E 153°09'0 0.5
2017-Sep-16 19:53S 27°24' E 153°09'0 0.2
2017-Sep-16 19:30S 27°24' E 153°09'0 0.1
2017-Sep-16 19:00S 27°24' E 153°09'0 0.0
2017-Sep-16 18:30S 27°24' E 153°09'1 2.5
2017-Sep-16 18:00S 27°23' E 153°10'1 2.6
2017-Sep-16 17:30S 27°22' E 153°11'0 0.4
2017-Sep-16 17:00S 27°22' E 153°10'0 0.0
2017-Sep-16 16:30S 27°22' E 153°10'0 0.0
2017-Sep-16 15:59S 27°22' E 153°10'0 0.0
2017-Sep-16 15:29S 27°22' E 153°10'1 1.7
2017-Sep-16 15:00S 27°23' E 153°10'3 6.7
2017-Sep-16 14:30S 27°26' E 153°08'0 0.1
2017-Sep-16 13:49S 27°25' E 153°08'2 5.8
2017-Sep-16 13:30S 27°24' E 153°09'0 0.3
2017-Sep-16 12:57S 27°24' E 153°09'0 0.0
2017-Sep-16 12:30S 27°24' E 153°09'0 0.0
2017-Sep-16 11:54S 27°24' E 153°09'0 0.0
2017-Sep-16 11:27S 27°24' E 153°09'0 0.0
2017-Sep-16 10:45S 27°24' E 153°09'0 0.0
2017-Sep-16 09:48S 27°24' E 153°09'0 0.0
2017-Sep-16 09:21S 27°24' E 153°09'0 0.0
2017-Sep-16 09:00S 27°24' E 153°09'0 0.0
2017-Sep-16 08:27S 27°24' E 153°09'2 4.8
2017-Sep-16 08:00S 27°22' E 153°10'0 0.2
2017-Sep-16 07:30S 27°22' E 153°10'4 7.6
2017-Sep-16 07:00S 27°25' E 153°08'3 6.4
2017-Sep-16 06:30S 27°27' E 153°05'1 1.1
2017-Sep-16 05:52S 27°27' E 153°04'1 2.8
2017-Sep-16 05:27S 27°27' E 153°05'4 0.7
2017-Sep-15 22:52S 27°24' E 153°09'3 7.8
2017-Sep-15 22:30S 27°22' E 153°11'0 0.3
2017-Sep-15 22:00S 27°22' E 153°11'1 2.4
2017-Sep-15 21:30S 27°23' E 153°10'2 3.1
2017-Sep-15 21:00S 27°24' E 153°09'0 0.1
2017-Sep-15 20:30S 27°24' E 153°09'4 7.6
2017-Sep-15 20:00S 27°27' E 153°06'2 3.7
2017-Sep-15 19:30S 27°27' E 153°04'3 5.1
2017-Sep-15 18:56S 27°26' E 153°07'3 6.9
2017-Sep-15 18:30S 27°24' E 153°09'2 2.9
2017-Sep-15 17:58S 27°22' E 153°10'0 0.0
2017-Sep-15 17:28S 27°22' E 153°10'0 0.0
2017-Sep-15 16:58S 27°22' E 153°10'0 0.0
2017-Sep-15 16:28S 27°22' E 153°10'0 0.0
2017-Sep-15 15:58S 27°22' E 153°10'0 0.0
2017-Sep-15 15:28S 27°22' E 153°10'0 0.0
2017-Sep-15 14:58S 27°22' E 153°10'0 0.0
2017-Sep-15 14:28S 27°22' E 153°10'0 0.0
2017-Sep-15 13:58S 27°22' E 153°10'0 0.0
2017-Sep-15 13:28S 27°22' E 153°10'0 1.1
2017-Sep-15 13:00S 27°23' E 153°10'0 0.4
2017-Sep-15 12:30S 27°22' E 153°10'0 0.8
2017-Sep-15 12:00S 27°22' E 153°10'0 0.0
2017-Sep-15 11:30S 27°22' E 153°10'0 0.0
2017-Sep-15 11:00S 27°22' E 153°10'4 7.6
2017-Sep-15 10:30S 27°25' E 153°08'3 6.7
2017-Sep-15 10:00S 27°27' E 153°04'2 3.5
2017-Sep-15 09:30S 27°27' E 153°06'4 6.8
2017-Sep-15 09:00S 27°24' E 153°09'0 0.0
2017-Sep-15 08:28S 27°24' E 153°09'0 0.6
2017-Sep-15 08:00S 27°24' E 153°09'0 0.1
2017-Sep-15 07:31S 27°24' E 153°09'0 0.5
2017-Sep-15 07:00S 27°25' E 153°09'2 3.3
2017-Sep-15 06:30S 27°23' E 153°10'0 0.3
2017-Sep-15 06:00S 27°23' E 153°10'0 0.6
2017-Sep-15 05:30S 27°23' E 153°09'1 0.7
2017-Sep-15 04:06S 27°24' E 153°09'0 0.2
2017-Sep-15 03:58S 27°24' E 153°09'0 0.1
2017-Sep-14 22:46S 27°24' E 153°09'2 6.7
2017-Sep-14 22:30S 27°22' E 153°10'1 1.9
2017-Sep-14 22:00S 27°22' E 153°11'0 0.4
2017-Sep-14 21:30S 27°22' E 153°11'1 2.2
2017-Sep-14 21:00S 27°21' E 153°11'4 7.1
2017-Sep-14 20:30S 27°24' E 153°09'0 0.2
2017-Sep-14 19:04S 27°24' E 153°09'0 0.0
2017-Sep-14 18:55S 27°24' E 153°09'0 0.0
2017-Sep-14 18:28S 27°24' E 153°09'0 0.0
2017-Sep-14 17:58S 27°24' E 153°09'0 0.0
2017-Sep-14 17:25S 27°24' E 153°09'0 0.0
2017-Sep-14 16:46S 27°24' E 153°09'0 0.0
2017-Sep-14 16:19S 27°24' E 153°09'0 0.0
2017-Sep-14 15:55S 27°24' E 153°09'0 0.0
2017-Sep-14 15:31S 27°24' E 153°09'0 0.0
2017-Sep-14 14:58S 27°24' E 153°09'0 0.0
2017-Sep-14 13:46S 27°24' E 153°09'0 0.0
2017-Sep-14 13:07S 27°24' E 153°09'0 0.0
2017-Sep-14 12:58S 27°24' E 153°09'0 0.0
2017-Sep-14 12:25S 27°24' E 153°09'0 0.0
2017-Sep-14 12:00S 27°24' E 153°09'2 4.2
2017-Sep-14 11:30S 27°22' E 153°10'1 2.7
2017-Sep-14 11:00S 27°21' E 153°11'3 5.1
2017-Sep-14 10:30S 27°23' E 153°09'1 0.1
2017-Sep-13 20:18S 27°24' E 153°09'0 0.0
2017-Sep-13 19:54S 27°24' E 153°09'0 0.0
2017-Sep-13 18:36S 27°24' E 153°09'0 0.0
2017-Sep-13 18:30S 27°24' E 153°09'0 0.0
2017-Sep-13 18:00S 27°24' E 153°09'0 0.0
2017-Sep-13 17:30S 27°24' E 153°09'0 0.0
2017-Sep-13 17:00S 27°24' E 153°09'0 0.0
2017-Sep-13 16:30S 27°24' E 153°09'0 0.0
2017-Sep-13 15:54S 27°24' E 153°09'0 0.0
2017-Sep-13 14:18S 27°24' E 153°09'0 0.0
2017-Sep-13 13:42S 27°24' E 153°09'0 0.0
2017-Sep-13 13:12S 27°24' E 153°09'0 0.0
2017-Sep-13 13:00S 27°24' E 153°09'0 0.0
2017-Sep-13 07:56S 27°24' E 153°09'2 5.0
2017-Sep-13 07:28S 27°26' E 153°07'1 1.2
2017-Sep-13 06:59S 27°25' E 153°08'3 5.1
2017-Sep-13 06:30S 27°23' E 153°09'1 2.6
2017-Sep-13 06:01S 27°22' E 153°10'2 0.2
2017-Sep-12 20:11S 27°24' E 153°09'0 2.2
2017-Sep-12 20:00S 27°24' E 153°09'4 8.1
2017-Sep-12 19:30S 27°27' E 153°05'1 1.6
2017-Sep-12 19:00S 27°27' E 153°04'1 2.4
2017-Sep-12 18:30S 27°27' E 153°06'4 6.8
2017-Sep-12 17:59S 27°25' E 153°09'1 2.3
2017-Sep-12 17:28S 27°23' E 153°09'0 0.0
2017-Sep-12 16:58S 27°23' E 153°09'1 0.1
2017-Sep-12 05:05S 27°24' E 153°09'1 7.5
2017-Sep-12 04:57S 27°23' E 153°09'2 3.2
2017-Sep-12 04:28S 27°22' E 153°11'0 0.0
2017-Sep-12 04:00S 27°22' E 153°11'1 2.5
2017-Sep-12 03:30S 27°23' E 153°10'1 0.1
2017-Sep-11 17:22S 27°24' E 153°09'0 0.0
2017-Sep-11 12:36S 27°24' E 153°09'0 3.6
2017-Sep-11 12:29S 27°24' E 153°09'1 2.1
2017-Sep-11 12:00S 27°23' E 153°10'0 0.4
2017-Sep-11 11:30S 27°23' E 153°10'  
Track history (hours):
 
Tides and Currents Weather Stations Pressure Air Temp Water Temp Dewpoint Dewpoint Depression Visibility Wind Speed Wind Dir Waves Ship Positions

Beltana

Last reported at 2017-Sep-21 06:08 UTC. Time now 2017-Sep-21 07:13 UTC.
Position S 27°22' E 153°10'.

Length 31 m; draft 5 m.

Type: Tug. MMSI: 503354000.

Date/timePositionNaut miles runAvg speedWind from/ knotsBaromVisibWave heightAir tempDewpointWater temp
2017-Sep-21 06:08S 27°22' E 153°10'2 0.3
2017-Sep-21 00:10S 27°24' E 153°09'1 3.2
2017-Sep-20 23:58S 27°23' E 153°09'1 1.0
2017-Sep-20 23:22S 27°23' E 153°10'0 0.0
2017-Sep-20 22:50S 27°23' E 153°10'0 0.6
2017-Sep-20 22:26S 27°23' E 153°10'1 3.2
2017-Sep-20 22:00S 27°21' E 153°11'2 2.9
2017-Sep-20 21:28S 27°23' E 153°10'1 1.2
2017-Sep-20 21:00S 27°22' E 153°10'1 1.3
2017-Sep-20 20:30S 27°23' E 153°10'1 1.0
2017-Sep-20 19:16S 27°24' E 153°09'0 0.0
2017-Sep-20 15:24S 27°24' E 153°09'1 2.7
2017-Sep-20 15:00S 27°23' E 153°10'2 1.8
2017-Sep-20 14:00S 27°22' E 153°11'0 0.9
2017-Sep-20 13:31S 27°22' E 153°11'0 0.0
2017-Sep-20 13:00S 27°22' E 153°11'0 0.0
2017-Sep-20 12:31S 27°22' E 153°11'0 0.0
2017-Sep-20 12:00S 27°22' E 153°11'0 0.0
2017-Sep-20 11:30S 27°22' E 153°11'0 0.0
2017-Sep-20 11:00S 27°22' E 153°11'1 1.4
2017-Sep-20 10:31S 27°22' E 153°10'2 3.5
2017-Sep-20 10:00S 27°24' E 153°09'0 0.0
2017-Sep-19 21:21S 27°24' E 153°09'2 7.1
2017-Sep-19 21:00S 27°22' E 153°11'0 0.5
2017-Sep-19 20:30S 27°22' E 153°11'1 2.9
2017-Sep-19 20:00S 27°23' E 153°10'0 0.0
2017-Sep-19 19:30S 27°23' E 153°10'0 0.2
2017-Sep-19 18:59S 27°23' E 153°10'1 1.8
2017-Sep-19 18:30S 27°22' E 153°10'0 0.2
2017-Sep-19 18:00S 27°22' E 153°10'2 4.0
2017-Sep-19 17:30S 27°24' E 153°09'0 0.4
2017-Sep-19 16:59S 27°24' E 153°09'0 0.0
2017-Sep-19 16:29S 27°24' E 153°09'0 0.0
2017-Sep-19 15:56S 27°24' E 153°09'0 0.0
2017-Sep-19 15:29S 27°24' E 153°09'0 0.0
2017-Sep-19 14:59S 27°24' E 153°09'0 0.0
2017-Sep-19 14:23S 27°24' E 153°09'0 0.0
2017-Sep-19 13:59S 27°24' E 153°09'0 0.0
2017-Sep-19 13:29S 27°24' E 153°09'0 0.0
2017-Sep-19 12:56S 27°24' E 153°09'0 0.0
2017-Sep-19 12:08S 27°24' E 153°09'0 0.0
2017-Sep-19 07:22S 27°24' E 153°09'1 2.1
2017-Sep-19 06:58S 27°25' E 153°09'3 6.9
2017-Sep-19 06:29S 27°27' E 153°06'0 0.4
2017-Sep-19 05:39S 27°27' E 153°05'3 7.6
2017-Sep-19 05:19S 27°26' E 153°08'2 0.9
2017-Sep-19 03:11S 27°24' E 153°09'1 5.7
2017-Sep-19 03:00S 27°23' E 153°10'0 0.9
2017-Sep-19 02:29S 27°23' E 153°10'0 0.7
2017-Sep-19 02:00S 27°22' E 153°10'1 1.0
2017-Sep-19 01:30S 27°23' E 153°10'1 0.3
2017-Sep-18 20:50S 27°24' E 153°09'1 4.0
2017-Sep-18 20:31S 27°23' E 153°10'0 0.0
2017-Sep-18 20:00S 27°23' E 153°10'0 0.0
2017-Sep-18 19:30S 27°23' E 153°10'0 0.0
2017-Sep-18 19:01S 27°23' E 153°10'0 0.2
2017-Sep-18 18:31S 27°23' E 153°10'1 2.6
2017-Sep-18 18:00S 27°24' E 153°09'0 0.3
2017-Sep-18 17:28S 27°24' E 153°09'0 0.0
2017-Sep-18 16:52S 27°24' E 153°09'0 0.0
2017-Sep-18 16:25S 27°24' E 153°09'0 0.0
2017-Sep-18 15:52S 27°24' E 153°09'0 0.0
2017-Sep-18 15:25S 27°24' E 153°09'0 0.0
2017-Sep-18 14:58S 27°24' E 153°09'0 0.0
2017-Sep-18 14:22S 27°24' E 153°09'0 0.0
2017-Sep-18 13:46S 27°24' E 153°09'0 0.0
2017-Sep-18 13:22S 27°24' E 153°09'0 0.0
2017-Sep-18 12:58S 27°24' E 153°09'0 0.0
2017-Sep-18 12:20S 27°24' E 153°09'2 5.6
2017-Sep-18 12:00S 27°25' E 153°08'0 0.2
2017-Sep-18 11:18S 27°26' E 153°08'2 6.5
2017-Sep-18 11:00S 27°24' E 153°09'0 0.0
2017-Sep-17 12:27S 27°24' E 153°09'1 2.4
2017-Sep-17 12:00S 27°23' E 153°10'0 0.0
2017-Sep-17 11:30S 27°23' E 153°10'0 0.1
2017-Sep-17 11:00S 27°23' E 153°10'1 2.4
2017-Sep-17 10:30S 27°22' E 153°10'2 4.2
2017-Sep-17 10:00S 27°24' E 153°09'0 0.1
2017-Sep-17 07:03S 27°24' E 153°09'0 1.5
2017-Sep-17 07:01S 27°24' E 153°09'4 6.6
2017-Sep-17 06:28S 27°27' E 153°06'1 0.6
2017-Sep-17 05:21S 27°27' E 153°06'5 7.8
2017-Sep-17 04:45S 27°23' E 153°09'0 0.0
2017-Sep-17 04:29S 27°23' E 153°09'1 2.0
2017-Sep-17 04:00S 27°23' E 153°10'1 1.9
2017-Sep-17 03:30S 27°22' E 153°10'0 1.0
2017-Sep-17 03:00S 27°22' E 153°10'1 2.2
2017-Sep-17 02:24S 27°23' E 153°09'0 0.2
2017-Sep-17 02:00S 27°23' E 153°09'0 0.2
2017-Sep-17 01:22S 27°23' E 153°10'1 2.0
2017-Sep-17 00:54S 27°22' E 153°10'0 0.1
2017-Sep-17 00:30S 27°22' E 153°10'1 1.1
2017-Sep-16 23:54S 27°22' E 153°10'1 2.1
2017-Sep-16 23:29S 27°23' E 153°10'2 0.6
2017-Sep-16 20:54S 27°24' E 153°09'0 0.8
2017-Sep-16 20:30S 27°24' E 153°09'0 0.5
2017-Sep-16 19:53S 27°24' E 153°09'0 0.2
2017-Sep-16 19:30S 27°24' E 153°09'0 0.1
2017-Sep-16 19:00S 27°24' E 153°09'0 0.0
2017-Sep-16 18:30S 27°24' E 153°09'1 2.5
2017-Sep-16 18:00S 27°23' E 153°10'1 2.6
2017-Sep-16 17:30S 27°22' E 153°11'0 0.4
2017-Sep-16 17:00S 27°22' E 153°10'0 0.0
2017-Sep-16 16:30S 27°22' E 153°10'0 0.0
2017-Sep-16 15:59S 27°22' E 153°10'0 0.0
2017-Sep-16 15:29S 27°22' E 153°10'1 1.7
2017-Sep-16 15:00S 27°23' E 153°10'3 6.7
2017-Sep-16 14:30S 27°26' E 153°08'0 0.1
2017-Sep-16 13:49S 27°25' E 153°08'2 5.8
2017-Sep-16 13:30S 27°24' E 153°09'0 0.3
2017-Sep-16 12:57S 27°24' E 153°09'0 0.0
2017-Sep-16 12:30S 27°24' E 153°09'0 0.0
2017-Sep-16 11:54S 27°24' E 153°09'0 0.0
2017-Sep-16 11:27S 27°24' E 153°09'0 0.0
2017-Sep-16 10:45S 27°24' E 153°09'0 0.0
2017-Sep-16 09:48S 27°24' E 153°09'0 0.0
2017-Sep-16 09:21S 27°24' E 153°09'0 0.0
2017-Sep-16 09:00S 27°24' E 153°09'0 0.0
2017-Sep-16 08:27S 27°24' E 153°09'2 4.8
2017-Sep-16 08:00S 27°22' E 153°10'0 0.2
2017-Sep-16 07:30S 27°22' E 153°10'4 7.6
2017-Sep-16 07:00S 27°25' E 153°08'3 6.4
2017-Sep-16 06:30S 27°27' E 153°05'1 1.1
2017-Sep-16 05:52S 27°27' E 153°04'1 2.8
2017-Sep-16 05:27S 27°27' E 153°05'4 0.7
2017-Sep-15 22:52S 27°24' E 153°09'3 7.8
2017-Sep-15 22:30S 27°22' E 153°11'0 0.3
2017-Sep-15 22:00S 27°22' E 153°11'1 2.4
2017-Sep-15 21:30S 27°23' E 153°10'2 3.1
2017-Sep-15 21:00S 27°24' E 153°09'0 0.1
2017-Sep-15 20:30S 27°24' E 153°09'4 7.6
2017-Sep-15 20:00S 27°27' E 153°06'2 3.7
2017-Sep-15 19:30S 27°27' E 153°04'3 5.1
2017-Sep-15 18:56S 27°26' E 153°07'3 6.9
2017-Sep-15 18:30S 27°24' E 153°09'2 2.9
2017-Sep-15 17:58S 27°22' E 153°10'0 0.0
2017-Sep-15 17:28S 27°22' E 153°10'0 0.0
2017-Sep-15 16:58S 27°22' E 153°10'0 0.0
2017-Sep-15 16:28S 27°22' E 153°10'0 0.0
2017-Sep-15 15:58S 27°22' E 153°10'0 0.0
2017-Sep-15 15:28S 27°22' E 153°10'0 0.0
2017-Sep-15 14:58S 27°22' E 153°10'0 0.0
2017-Sep-15 14:28S 27°22' E 153°10'0 0.0
2017-Sep-15 13:58S 27°22' E 153°10'0 0.0
2017-Sep-15 13:28S 27°22' E 153°10'0 1.1
2017-Sep-15 13:00S 27°23' E 153°10'0 0.4
2017-Sep-15 12:30S 27°22' E 153°10'0 0.8
2017-Sep-15 12:00S 27°22' E 153°10'0 0.0
2017-Sep-15 11:30S 27°22' E 153°10'0 0.0
2017-Sep-15 11:00S 27°22' E 153°10'4 7.6
2017-Sep-15 10:30S 27°25' E 153°08'3 6.7
2017-Sep-15 10:00S 27°27' E 153°04'2 3.5
2017-Sep-15 09:30S 27°27' E 153°06'4 6.8
2017-Sep-15 09:00S 27°24' E 153°09'0 0.0
2017-Sep-15 08:28S 27°24' E 153°09'0 0.6
2017-Sep-15 08:00S 27°24' E 153°09'0 0.1
2017-Sep-15 07:31S 27°24' E 153°09'0 0.5
2017-Sep-15 07:00S 27°25' E 153°09'2 3.3
2017-Sep-15 06:30S 27°23' E 153°10'0 0.3
2017-Sep-15 06:00S 27°23' E 153°10'0 0.6
2017-Sep-15 05:30S 27°23' E 153°09'1 0.7
2017-Sep-15 04:06S 27°24' E 153°09'0 0.2
2017-Sep-15 03:58S 27°24' E 153°09'0 0.1
2017-Sep-14 22:46S 27°24' E 153°09'2 6.7
2017-Sep-14 22:30S 27°22' E 153°10'1 1.9
2017-Sep-14 22:00S 27°22' E 153°11'0 0.4
2017-Sep-14 21:30S 27°22' E 153°11'1 2.2
2017-Sep-14 21:00S 27°21' E 153°11'4 7.1
2017-Sep-14 20:30S 27°24' E 153°09'0 0.2
2017-Sep-14 19:04S 27°24' E 153°09'0 0.0
2017-Sep-14 18:55S 27°24' E 153°09'0 0.0
2017-Sep-14 18:28S 27°24' E 153°09'0 0.0
2017-Sep-14 17:58S 27°24' E 153°09'0 0.0
2017-Sep-14 17:25S 27°24' E 153°09'0 0.0
2017-Sep-14 16:46S 27°24' E 153°09'0 0.0
2017-Sep-14 16:19S 27°24' E 153°09'0 0.0
2017-Sep-14 15:55S 27°24' E 153°09'0 0.0
2017-Sep-14 15:31S 27°24' E 153°09'0 0.0
2017-Sep-14 14:58S 27°24' E 153°09'0 0.0
2017-Sep-14 13:46S 27°24' E 153°09'0 0.0
2017-Sep-14 13:07S 27°24' E 153°09'0 0.0
2017-Sep-14 12:58S 27°24' E 153°09'0 0.0
2017-Sep-14 12:25S 27°24' E 153°09'0 0.0
2017-Sep-14 12:00S 27°24' E 153°09'2 4.2
2017-Sep-14 11:30S 27°22' E 153°10'1 2.7
2017-Sep-14 11:00S 27°21' E 153°11'3 5.1
2017-Sep-14 10:30S 27°23' E 153°09'1 0.1
2017-Sep-13 20:18S 27°24' E 153°09'0 0.0
2017-Sep-13 19:54S 27°24' E 153°09'0 0.0
2017-Sep-13 18:36S 27°24' E 153°09'0 0.0
2017-Sep-13 18:30S 27°24' E 153°09'0 0.0
2017-Sep-13 18:00S 27°24' E 153°09'0 0.0
2017-Sep-13 17:30S 27°24' E 153°09'0 0.0
2017-Sep-13 17:00S 27°24' E 153°09'0 0.0
2017-Sep-13 16:30S 27°24' E 153°09'0 0.0
2017-Sep-13 15:54S 27°24' E 153°09'0 0.0
2017-Sep-13 14:18S 27°24' E 153°09'0 0.0
2017-Sep-13 13:42S 27°24' E 153°09'0 0.0
2017-Sep-13 13:12S 27°24' E 153°09'0 0.0
2017-Sep-13 13:00S 27°24' E 153°09'0 0.0
2017-Sep-13 07:56S 27°24' E 153°09'2 5.0
2017-Sep-13 07:28S 27°26' E 153°07'1 1.2
2017-Sep-13 06:59S 27°25' E 153°08'3 5.1
2017-Sep-13 06:30S 27°23' E 153°09'1 2.6
2017-Sep-13 06:01S 27°22' E 153°10'2 0.2
2017-Sep-12 20:11S 27°24' E 153°09'0 2.2
2017-Sep-12 20:00S 27°24' E 153°09'4 8.1
2017-Sep-12 19:30S 27°27' E 153°05'1 1.6
2017-Sep-12 19:00S 27°27' E 153°04'1 2.4
2017-Sep-12 18:30S 27°27' E 153°06'4 6.8
2017-Sep-12 17:59S 27°25' E 153°09'1 2.3
2017-Sep-12 17:28S 27°23' E 153°09'0 0.0
2017-Sep-12 16:58S 27°23' E 153°09'1 0.1
2017-Sep-12 05:05S 27°24' E 153°09'1 7.5
2017-Sep-12 04:57S 27°23' E 153°09'2 3.2
2017-Sep-12 04:28S 27°22' E 153°11'0 0.0
2017-Sep-12 04:00S 27°22' E 153°11'1 2.5
2017-Sep-12 03:30S 27°23' E 153°10'1 0.1
2017-Sep-11 17:22S 27°24' E 153°09'0 0.0
2017-Sep-11 12:36S 27°24' E 153°09'0 3.6
2017-Sep-11 12:29S 27°24' E 153°09'1 2.1
2017-Sep-11 12:00S 27°23' E 153°10'0 0.4
2017-Sep-11 11:30S 27°23' E 153°10'  

Dump ship's entire track history